Time;durP1;ratioP1;P1;durP2;ratioP2;P2;SDS_P1;SDS_P2;PMS_P1;PMS_P2;Temp;Humidity;BMP_temperature;BMP_pressure;BME280_temperature;BME280_humidity;BME280_pressure;Samples;Min_cycle;Max_cycle;Signal;HPM_P1;HPM_P2
2022/11/19 00:01:02;;;;;;;5.72;2.70;;;1.40;99.90;;;;;;5011783;28;20612;-56
2022/11/19 00:03:30;;;;;;;5.95;3.20;;;1.20;99.90;;;;;;5016904;28;20037;-56
2022/11/19 00:06:06;;;;;;;6.25;3.00;;;1.30;99.90;;;;;;5018602;28;20045;-56
2022/11/19 00:08:32;;;;;;;5.20;2.65;;;;;;;;;;5016063;28;20046;-57
2022/11/19 00:11:11;;;;;;;5.35;2.78;;;;;;;;;;5019097;28;20410;-56
2022/11/19 00:13:39;;;;;;;5.22;2.17;;;1.20;99.90;;;;;;5016503;28;20043;-56
2022/11/19 00:16:08;;;;;;;6.45;2.78;;;1.30;99.90;;;;;;5017398;28;20033;-56
2022/11/19 00:18:34;;;;;;;4.82;2.80;;;;;;;;;;5015890;28;20037;-56
2022/11/19 00:21:10;;;;;;;4.63;2.45;;;1.30;99.90;;;;;;5018537;28;20477;-56
2022/11/19 00:23:36;;;;;;;4.72;2.60;;;;;;;;;;5017474;28;20408;-56
2022/11/19 00:26:13;;;;;;;6.05;2.90;;;;;;;;;;5019837;28;20056;-54
2022/11/19 00:28:40;;;;;;;5.57;3.10;;;1.30;99.90;;;;;;5016066;28;20091;-56
2022/11/19 00:31:07;;;;;;;4.72;2.67;;;;;;;;;;5015516;28;20243;-55
2022/11/19 00:33:34;;;;;;;5.15;2.80;;;;;;;;;;5017532;28;20038;-56
2022/11/19 00:36:01;;;;;;;6.10;3.03;;;1.10;99.90;;;;;;5017554;28;20072;-56
2022/11/19 00:38:27;;;;;;;4.35;2.35;;;;;;;;;;5015477;28;20065;-56
2022/11/19 00:40:53;;;;;;;5.68;3.22;;;;;;;;;;5014194;28;20239;-56
2022/11/19 00:46:05;;;;;;;4.22;2.47;;;;;;;;;;5016789;28;20092;-56
2022/11/19 00:48:31;;;;;;;5.85;3.25;;;;;;;;;;5018001;28;20120;-56
2022/11/19 00:50:57;;;;;;;5.22;2.58;;;;;;;;;;5016984;28;20048;-56
2022/11/19 00:53:24;;;;;;;5.75;3.03;;;;;;;;;;5016121;28;20510;-56
2022/11/19 00:55:50;;;;;;;6.57;3.50;;;;;;;;;;5013294;28;20029;-56
2022/11/19 00:58:16;;;;;;;6.55;3.17;;;;;;;;;;5013758;28;21106;-55
2022/11/19 01:00:42;;;;;;;6.13;3.10;;;;;;;;;;5046947;28;20049;-56
2022/11/19 01:03:08;;;;;;;6.00;2.78;;;;;;;;;;5016591;28;20226;-56
2022/11/19 01:05:34;;;;;;;5.13;2.38;;;;;;;;;;5016239;28;20132;-57
2022/11/19 01:08:00;;;;;;;6.20;3.25;;;;;;;;;;5015262;28;20049;-56
2022/11/19 01:10:27;;;;;;;6.03;2.83;;;;;;;;;;5015158;28;20095;-55
2022/11/19 01:15:38;;;;;;;5.28;3.00;;;;;;;;;;5016013;28;20049;-56
2022/11/19 01:18:04;;;;;;;7.07;3.20;;;;;;;;;;5014252;28;20041;-55
2022/11/19 01:20:30;;;;;;;6.55;3.17;;;;;;;;;;5015154;28;20041;-56
2022/11/19 01:22:56;;;;;;;5.70;3.47;;;;;;;;;;5017147;28;20132;-54
2022/11/19 01:25:22;;;;;;;6.55;3.20;;;;;;;;;;5016772;28;20041;-56
2022/11/19 01:27:48;;;;;;;5.30;2.65;;;;;;;;;;5014303;28;20762;-56
2022/11/19 01:30:14;;;;;;;6.32;3.60;;;;;;;;;;5013791;28;20049;-54
2022/11/19 01:32:40;;;;;;;6.20;3.70;;;;;;;;;;5019055;28;20037;-56
2022/11/19 01:35:07;;;;;;;6.07;2.97;;;;;;;;;;5014131;28;20041;-56
2022/11/19 01:37:33;;;;;;;5.72;3.40;;;;;;;;;;5014667;28;20045;-54
2022/11/19 01:39:59;;;;;;;5.72;3.65;;;;;;;;;;5016036;28;20037;-56
2022/11/19 01:45:41;;;;;;;6.75;4.13;;;;;;;;;;5014554;28;20053;-55
2022/11/19 01:48:22;;;;;;;5.63;3.35;;;;;;;;;;5014093;28;20407;-56
2022/11/19 01:51:09;;;;;;;7.53;3.53;;;;;;;;;;5018310;28;20099;-56
2022/11/19 01:53:35;;;;;;;7.72;3.65;;;;;;;;;;5013788;28;20159;-56
2022/11/19 01:56:03;;;;;;;5.95;3.53;;;;;;;;;;5016633;28;20034;-56
2022/11/19 01:58:36;;;;;;;6.97;3.53;;;0.20;99.90;;;;;;5015317;28;20045;-56
2022/11/19 02:01:03;;;;;;;6.15;4.05;;;;;;;;;;5014104;28;20804;-55
2022/11/19 02:03:30;;;;;;;6.38;4.10;;;;;;;;;;5016929;28;20390;-55
2022/11/19 02:05:56;;;;;;;7.03;3.92;;;;;;;;;;5014484;28;20213;-56
2022/11/19 02:08:42;;;;;;;6.88;3.90;;;;;;;;;;5014447;28;20042;-56
2022/11/19 02:11:17;;;;;;;6.93;3.60;;;;;;;;;;5015437;28;20033;-56
2022/11/19 02:13:49;;;;;;;5.57;3.70;;;;;;;;;;5016006;28;20441;-54
2022/11/19 02:16:15;;;;;;;;;;;;;;;;;;5016266;28;20072;-55
2022/11/19 02:18:41;;;;;;;5.82;3.15;;;;;;;;;;5014253;28;19987;-56
2022/11/19 02:21:31;;;;;;;6.40;3.42;;;;;;;;;;5015191;28;20036;-55
2022/11/19 02:24:09;;;;;;;7.55;3.90;;;;;;;;;;5010963;28;20140;-56
2022/11/19 02:26:54;;;;;;;6.97;4.00;;;0.00;99.90;;;;;;5015028;28;20046;-53
2022/11/19 02:29:30;;;;;;;7.00;3.28;;;;;;;;;;5015531;28;20037;-56
2022/11/19 02:32:02;;;;;;;7.72;3.78;;;-0.10;99.90;;;;;;5016882;28;20041;-55
2022/11/19 02:34:31;;;;;;;6.97;3.80;;;;;;;;;;5021664;28;20107;-56
2022/11/19 02:37:00;;;;;;;6.00;3.50;;;;;;;;;;5018688;28;20037;-55
2022/11/19 02:39:32;;;;;;;7.10;3.70;;;0.00;99.90;;;;;;5018947;28;20043;-55
2022/11/19 02:42:21;;;;;;;5.80;3.55;;;-0.10;99.90;;;;;;5018950;28;20041;-55
2022/11/19 02:45:01;;;;;;;6.35;3.53;;;;;;;;;;5018971;28;20076;-55
2022/11/19 02:47:35;;;;;;;7.03;3.75;;;;;;;;;;5017943;28;20068;-55
2022/11/19 02:50:06;;;;;;;7.05;3.75;;;;;;;;;;5018365;28;20045;-55
2022/11/19 02:52:33;;;;;;;7.10;3.92;;;;;;;;;;5016130;28;20159;-55
2022/11/19 02:54:59;;;;;;;7.00;3.70;;;;;;;;;;5020443;28;20136;-55
2022/11/19 02:57:25;;;;;;;5.90;3.65;;;;;;;;;;5018352;28;20042;-55
2022/11/19 03:05:44;;;;;;;6.15;3.63;;;;;;;;;;5017861;28;20053;-55
2022/11/19 03:08:11;;;;;;;6.82;3.47;;;;;;;;;;5019688;28;20055;-55
2022/11/19 03:10:43;;;;;;;5.80;3.53;;;;;;;;;;5020107;28;20038;-55
2022/11/19 03:18:54;;;;;;;5.82;2.60;;;;;;;;;;5020374;28;20140;-56
2022/11/19 03:21:20;;;;;;;6.57;3.78;;;;;;;;;;5014777;28;20417;-52
2022/11/19 03:24:08;;;;;;;15.07;6.38;;;;;;;;;;5018255;28;20053;-54
2022/11/19 03:26:42;;;;;;;6.28;3.88;;;;;;;;;;5017166;28;20133;-55
2022/11/19 03:29:10;;;;;;;7.63;3.90;;;;;;;;;;5017073;28;20406;-55
2022/11/19 03:31:38;;;;;;;7.85;4.53;;;;;;;;;;5017645;28;20052;-52
2022/11/19 03:34:09;;;;;;;7.55;4.50;;;;;;;;;;5015417;28;20041;-53
2022/11/19 03:36:37;;;;;;;7.82;4.70;;;;;;;;;;5017076;28;20214;-54
2022/11/19 03:39:05;;;;;;;8.00;4.22;;;;;;;;;;5013863;28;20045;-55
2022/11/19 03:41:33;;;;;;;6.90;3.88;;;;;;;;;;5049533;28;20545;-54
2022/11/19 03:44:04;;;;;;;9.40;4.20;;;;;;;;;;5017902;28;20076;-54
2022/11/19 03:46:33;;;;;;;6.68;3.88;;;;;;;;;;5019910;28;20525;-54
2022/11/19 03:49:00;;;;;;;7.60;4.50;;;;;;;;;;5019608;28;20592;-55
2022/11/19 03:51:30;;;;;;;7.15;3.65;;;;;;;;;;5017623;28;20533;-54
2022/11/19 03:53:56;;;;;;;6.63;4.38;;;;;;;;;;5017593;28;20128;-53
2022/11/19 03:56:23;;;;;;;6.78;3.85;;;;;;;;;;5014574;28;20057;-54
2022/11/19 03:58:52;;;;;;;7.03;3.78;;;;;;;;;;5017688;28;20037;-54
2022/11/19 04:01:19;;;;;;;7.45;4.20;;;;;;;;;;5017506;28;20041;-53
2022/11/19 04:04:34;;;;;;;7.22;3.17;;;;;;;;;;5020187;28;20128;-55
2022/11/19 04:06:31;;;;;;;5.32;2.92;;;;;;;;;;5019632;28;20046;-53
2022/11/19 04:08:57;;;;;;;6.25;3.47;;;;;;;;;;5017580;28;20037;-54
2022/11/19 04:11:23;;;;;;;6.28;3.17;;;;;;;;;;5018628;28;20045;-53
2022/11/19 04:13:49;;;;;;;6.75;3.50;;;;;;;;;;5019801;28;20113;-52
2022/11/19 04:16:15;;;;;;;4.65;1.90;;;;;;;;;;5017428;28;20046;-55
2022/11/19 04:18:41;;;;;;;7.13;4.13;;;;;;;;;;5017082;28;20064;-55
2022/11/19 04:21:07;;;;;;;6.40;3.95;;;;;;;;;;5016099;28;20041;-55
2022/11/19 04:23:33;;;;;;;7.03;3.78;;;;;;;;;;5015768;28;20061;-55
2022/11/19 04:25:59;;;;;;;6.82;3.65;;;;;;;;;;5014619;28;20136;-51
2022/11/19 04:28:26;;;;;;;7.32;3.70;;;;;;;;;;5014874;28;20512;-55
2022/11/19 04:30:52;;;;;;;6.70;3.53;;;;;;;;;;5014352;28;20050;-56
2022/11/19 04:33:18;;;;;;;6.88;3.65;;;;;;;;;;5015897;28;20133;-54
2022/11/19 04:35:45;;;;;;;6.25;2.88;;;;;;;;;;5015834;28;20414;-54
2022/11/19 04:38:11;;;;;;;8.20;4.28;;;;;;;;;;5015261;28;20033;-54
2022/11/19 04:40:38;;;;;;;6.22;3.40;;;;;;;;;;5014664;28;20046;-55
2022/11/19 04:43:04;;;;;;;8.85;4.60;;;;;;;;;;5015045;28;20677;-55
2022/11/19 04:45:30;;;;;;;6.53;3.17;;;;;;;;;;5014992;28;20041;-56
2022/11/19 04:47:56;;;;;;;5.55;3.05;;;;;;;;;;5015442;28;20057;-56
2022/11/19 04:50:22;;;;;;;7.32;3.50;;;;;;;;;;5015701;28;20044;-54
2022/11/19 04:52:48;;;;;;;12.88;5.80;;;;;;;;;;5015614;28;20630;-54
2022/11/19 04:55:15;;;;;;;7.18;4.20;;;;;;;;;;5015809;28;20810;-56
2022/11/19 04:57:41;;;;;;;5.93;2.20;;;;;;;;;;5014118;28;20158;-55
2022/11/19 05:00:07;;;;;;;7.47;4.68;;;;;;;;;;5015311;28;20132;-55
2022/11/19 05:02:33;;;;;;;8.05;4.32;;;;;;;;;;5014175;28;20095;-54
2022/11/19 05:05:00;;;;;;;6.75;4.15;;;;;;;;;;5019884;28;20033;-55
2022/11/19 05:07:26;;;;;;;7.47;4.13;;;;;;;;;;5017857;28;20055;-53
2022/11/19 05:09:52;;;;;;;7.95;5.10;;;;;;;;;;5014768;28;20044;-53
2022/11/19 05:12:18;;;;;;;8.52;4.63;;;;;;;;;;5014630;28;20068;-54
2022/11/19 05:14:44;;;;;;;6.90;3.60;;;;;;;;;;5018384;28;20516;-54
2022/11/19 05:17:11;;;;;;;7.43;4.35;;;;;;;;;;5017474;28;20535;-54
2022/11/19 05:19:37;;;;;;;8.05;4.50;;;;;;;;;;5015863;28;20045;-55
2022/11/19 05:22:03;;;;;;;7.13;3.72;;;;;;;;;;5016866;28;20065;-55
2022/11/19 05:24:29;;;;;;;7.78;4.50;;;;;;;;;;5017154;28;20049;-55
2022/11/19 05:26:55;;;;;;;5.10;3.08;;;;;;;;;;5015682;28;20041;-54
2022/11/19 05:29:21;;;;;;;8.80;5.07;;;;;;;;;;5016397;28;20072;-55
2022/11/19 05:31:47;;;;;;;7.78;4.13;;;;;;;;;;5015285;28;20045;-54
2022/11/19 05:34:13;;;;;;;8.88;4.82;;;;;;;;;;5015760;28;20032;-55
2022/11/19 05:36:39;;;;;;;9.23;3.97;;;;;;;;;;5014103;28;20521;-53
2022/11/19 05:39:05;;;;;;;10.10;5.35;;;;;;;;;;5014165;28;20362;-55
2022/11/19 05:41:32;;;;;;;9.82;5.38;;;;;;;;;;5015922;28;20041;-50
2022/11/19 05:43:58;;;;;;;8.15;4.93;;;;;;;;;;5013470;28;20908;-54
2022/11/19 05:46:24;;;;;;;7.75;4.43;;;;;;;;;;5016130;28;20036;-53
2022/11/19 05:48:50;;;;;;;8.38;4.32;;;;;;;;;;5013019;28;20052;-54
2022/11/19 05:51:16;;;;;;;7.40;3.53;;;;;;;;;;5014229;28;20053;-55
2022/11/19 05:53:42;;;;;;;7.25;4.18;;;;;;;;;;5015971;28;20045;-53
2022/11/19 05:56:09;;;;;;;7.93;4.82;;;;;;;;;;5017960;28;20864;-54
2022/11/19 05:58:35;;;;;;;8.77;5.38;;;;;;;;;;5015378;28;20050;-55
2022/11/19 06:01:02;;;;;;;9.10;4.82;;;;;;;;;;5014847;28;20038;-54
2022/11/19 06:03:28;;;;;;;8.45;5.07;;;;;;;;;;5016032;28;20049;-52
2022/11/19 06:05:54;;;;;;;9.30;4.50;;;;;;;;;;5014139;28;20129;-54
2022/11/19 06:08:21;;;;;;;8.18;4.85;;;;;;;;;;5019632;28;20050;-55
2022/11/19 06:10:47;;;;;;;9.07;5.18;;;;;;;;;;5020097;28;20045;-55
2022/11/19 06:13:13;;;;;;;7.70;4.43;;;;;;;;;;5017440;28;20203;-52
2022/11/19 06:15:39;;;;;;;7.50;4.18;;;;;;;;;;5019248;28;20045;-55
2022/11/19 06:18:05;;;;;;;7.10;4.75;;;;;;;;;;5018774;28;21286;-52
2022/11/19 06:20:31;;;;;;;8.57;5.13;;;;;;;;;;5019968;28;20053;-54
2022/11/19 06:22:57;;;;;;;9.70;4.88;;;;;;;;;;5017240;28;20041;-53
2022/11/19 06:25:23;;;;;;;8.98;4.93;;;;;;;;;;5017870;28;20044;-48
2022/11/19 06:27:49;;;;;;;8.35;5.47;;;;;;;;;;5017650;28;20106;-52
2022/11/19 06:30:16;;;;;;;9.27;5.45;;;;;;;;;;5018893;28;20049;-52
2022/11/19 06:32:43;;;;;;;9.13;5.25;;;;;;;;;;5018305;28;20099;-53
2022/11/19 06:35:09;;;;;;;11.80;6.75;;;;;;;;;;5017755;28;20136;-53
2022/11/19 06:37:36;;;;;;;7.20;4.40;;;;;;;;;;5019850;28;20083;-50
2022/11/19 06:40:02;;;;;;;8.88;4.53;;;;;;;;;;5019516;28;20096;-53
2022/11/19 06:42:37;;;;;;;9.25;6.00;;;;;;;;;;5017822;28;20136;-52
2022/11/19 06:45:04;;;;;;;10.70;5.60;;;;;;;;;;5017628;28;20045;-52
2022/11/19 06:47:31;;;;;;;7.93;5.40;;;;;;;;;;5018778;28;20054;-52
2022/11/19 06:49:57;;;;;;;7.78;4.88;;;;;;;;;;5052937;28;20045;-53
2022/11/19 06:52:24;;;;;;;8.20;4.40;;;;;;;;;;5021850;28;20049;-50
2022/11/19 06:54:50;;;;;;;7.75;4.95;;;;;;;;;;5018687;28;20124;-49
2022/11/19 06:57:16;;;;;;;9.00;5.47;;;;;;;;;;5018881;28;20050;-53
2022/11/19 06:59:42;;;;;;;8.82;5.43;;;;;;;;;;5019862;28;21001;-52
2022/11/19 07:02:10;;;;;;;8.98;5.55;;;;;;;;;;5018237;28;20150;-53
2022/11/19 07:04:36;;;;;;;9.98;4.90;;;;;;;;;;5022707;28;20049;-53
2022/11/19 07:07:03;;;;;;;8.55;5.32;;;;;;;;;;5015643;28;20053;-54
2022/11/19 07:09:29;;;;;;;7.97;5.13;;;;;;;;;;5017910;28;20684;-49
2022/11/19 07:11:55;;;;;;;9.27;5.35;;;;;;;;;;5014712;28;20156;-49
2022/11/19 07:14:21;;;;;;;8.05;5.07;;;;;;;;;;5017579;28;20048;-53
2022/11/19 07:16:47;;;;;;;8.90;5.60;;;;;;;;;;5016501;28;20091;-50
2022/11/19 07:19:13;;;;;;;8.85;5.10;;;;;;;;;;5016507;28;20822;-50
2022/11/19 07:21:39;;;;;;;7.35;4.97;;;;;;;;;;5015609;28;20078;-52
2022/11/19 07:24:07;;;;;;;8.68;5.70;;;;;;;;;;5017412;28;20068;-52
2022/11/19 07:26:33;;;;;;;9.73;5.80;;;;;;;;;;5017327;28;20529;-52
2022/11/19 07:29:00;;;;;;;8.57;5.20;;;;;;;;;;5016398;28;20124;-50
2022/11/19 07:31:27;;;;;;;8.68;5.40;;;;;;;;;;5016175;28;20155;-52
2022/11/19 07:33:53;;;;;;;12.23;5.45;;;;;;;;;;5013855;28;20045;-55
2022/11/19 07:36:19;;;;;;;9.68;5.28;;;;;;;;;;5015766;28;20049;-48
2022/11/19 07:38:46;;;;;;;8.68;5.57;;;;;;;;;;5013361;28;20107;-49
2022/11/19 07:43:57;;;;;;;10.10;5.53;;;;;;;;;;5019326;28;20758;-50
2022/11/19 07:46:23;;;;;;;8.00;5.07;;;;;;;;;;5015226;28;20049;-51
2022/11/19 07:48:55;;;;;;;9.68;5.30;;;;;;;;;;5016365;28;20060;-55
2022/11/19 07:51:22;;;;;;;9.57;5.30;;;;;;;;;;5017220;28;20441;-56
2022/11/19 07:53:48;;;;;;;10.88;5.68;;;;;;;;;;5016767;28;20053;-56
2022/11/19 07:56:14;;;;;;;10.43;5.47;;;;;;;;;;5018939;28;20045;-56
2022/11/19 07:58:41;;;;;;;9.63;4.53;;;;;;;;;;5018663;28;20052;-56
2022/11/19 08:01:10;;;;;;;9.00;5.90;;;;;;;;;;5015200;28;20585;-55
2022/11/19 08:03:37;;;;;;;8.63;5.38;;;;;;;;;;5017695;28;20056;-56
2022/11/19 08:06:04;;;;;;;9.00;5.68;;;;;;;;;;5017099;28;20103;-56
2022/11/19 08:08:30;;;;;;;10.60;5.70;;;;;;;;;;5017199;28;20128;-56
2022/11/19 08:10:57;;;;;;;8.98;5.47;;;;;;;;;;5016898;28;20041;-56
2022/11/19 08:13:23;;;;;;;7.20;4.30;;;;;;;;;;5017391;28;20549;-53
2022/11/19 08:15:49;;;;;;;8.68;5.65;;;;;;;;;;5016492;28;20039;-55
2022/11/19 08:18:16;;;;;;;9.85;6.05;;;;;;;;;;5014309;28;20052;-56
2022/11/19 08:20:43;;;;;;;9.68;6.15;;;;;;;;;;5015868;28;20537;-56
2022/11/19 08:23:09;;;;;;;10.25;5.63;;;;;;;;;;5015344;28;20690;-56
2022/11/19 08:25:36;;;;;;;11.52;5.38;;;;;;;;;;5015520;28;20049;-57
2022/11/19 08:28:03;;;;;;;9.75;5.88;;;;;;;;;;5020008;28;20092;-56
2022/11/19 08:30:29;;;;;;;9.13;5.95;;;;;;;;;;5014922;28;20445;-56
2022/11/19 08:32:55;;;;;;;8.07;4.95;;;;;;;;;;5018560;28;20068;-57
2022/11/19 08:35:21;;;;;;;7.97;5.15;;;;;;;;;;5014788;28;20037;-56
2022/11/19 08:37:47;;;;;;;8.98;5.25;;;;;;;;;;5017137;28;20033;-56
2022/11/19 08:40:14;;;;;;;9.32;6.00;;;4.60;99.90;;;;;;5014390;28;20044;-56
2022/11/19 08:42:59;;;;;;;9.15;5.47;;;;;;;;;;5015211;28;20045;-55
2022/11/19 08:45:32;;;;;;;9.02;5.50;;;5.80;99.90;;;;;;5014678;28;20088;-56
2022/11/19 08:48:00;;;;;;;13.27;6.30;;;6.10;99.90;;;;;;5018313;28;20056;-55
2022/11/19 08:50:26;;;;;;;8.23;5.57;;;6.20;99.90;;;;;;5014590;28;20111;-56
2022/11/19 08:53:00;;;;;;;9.70;5.50;;;6.30;99.90;;;;;;5015071;28;20075;-56
2022/11/19 08:55:28;;;;;;;8.00;5.70;;;6.80;99.90;;;;;;5016177;28;20137;-55
2022/11/19 08:58:05;;;;;;;8.07;5.72;;;7.10;99.90;;;;;;5014776;28;20091;-54
2022/11/19 09:00:31;;;;;;;8.57;5.45;;;;;;;;;;5015758;28;20044;-55
2022/11/19 09:02:57;;;;;;;8.05;5.13;;;;;;;;;;5015123;28;20311;-55
2022/11/19 09:05:23;;;;;;;8.93;5.50;;;;;;;;;;5017767;28;20323;-55
2022/11/19 09:07:49;;;;;;;8.73;5.43;;;;;;;;;;5014560;28;20034;-55
2022/11/19 09:10:16;;;;;;;8.07;5.43;;;7.10;99.90;;;;;;5017323;28;20050;-56
2022/11/19 09:12:42;;;;;;;7.50;5.35;;;;;;;;;;5016508;28;20084;-55
2022/11/19 09:15:08;;;;;;;9.48;5.75;;;6.10;99.90;;;;;;5015650;28;20892;-54
2022/11/19 09:17:35;;;;;;;9.00;5.90;;;;;;;;;;5015799;28;20037;-55
2022/11/19 09:20:01;;;;;;;9.02;5.97;;;;;;;;;;5016212;28;20049;-55
2022/11/19 09:22:27;;;;;;;9.70;5.72;;;;;;;;;;5016937;28;20103;-55
2022/11/19 09:24:53;;;;;;;7.35;5.30;;;;;;;;;;5014544;28;20041;-55
2022/11/19 09:27:19;;;;;;;8.50;5.20;;;;;;;;;;5015822;28;20041;-55
2022/11/19 09:29:46;;;;;;;9.70;5.80;;;;;;;;;;5016423;28;20046;-55
2022/11/19 09:32:12;;;;;;;8.75;5.38;;;;;;;;;;5016207;28;20033;-55
2022/11/19 09:34:39;;;;;;;8.82;6.35;;;;;;;;;;5017279;28;20041;-56
2022/11/19 09:37:06;;;;;;;8.98;6.00;;;;;;;;;;5015788;28;20053;-54
2022/11/19 09:39:32;;;;;;;8.65;5.53;;;;;;;;;;5014563;28;20037;-55
2022/11/19 09:42:18;;;;;;;9.18;5.88;;;3.00;99.90;;;;;;5012358;28;20037;-54
2022/11/19 09:44:55;;;;;;;8.82;5.43;;;2.70;99.90;;;;;;5014205;28;20047;-54
2022/11/19 09:47:53;;;;;;;7.47;4.80;;;2.40;99.90;;;;;;5011376;28;20061;-55
2022/11/19 09:50:23;;;;;;;8.55;5.47;;;2.60;99.90;;;;;;5044075;28;20552;-52
2022/11/19 09:53:06;;;;;;;8.05;5.50;;;;;;;;;;5012941;28;20045;-55
2022/11/19 09:55:36;;;;;;;10.40;5.78;;;2.50;99.90;;;;;;5015072;28;20494;-55
2022/11/19 09:58:25;;;;;;;10.43;6.53;;;;;;;;;;5012233;28;20041;-54
2022/11/19 10:00:51;;;;;;;8.52;5.30;;;;;;;;;;5010347;28;20500;-54
2022/11/19 10:03:21;;;;;;;8.40;5.50;;;2.40;99.90;;;;;;5013347;28;20034;-54
2022/11/19 10:06:14;;;;;;;8.10;5.38;;;2.00;99.90;;;;;;5013940;28;20147;-55
2022/11/19 10:08:56;;;;;;;9.15;5.20;;;;;;;;;;5015943;28;20084;-53
2022/11/19 10:11:43;;;;;;;7.78;4.97;;;1.50;99.90;;;;;;5016169;28;20387;-55
2022/11/19 10:14:37;;;;;;;8.45;5.05;;;;;;;;;;5012145;28;20140;-55
2022/11/19 10:17:41;;;;;;;7.60;4.13;;;1.50;99.90;;;;;;5014353;28;20437;-54
2022/11/19 10:20:32;;;;;;;6.60;4.60;;;;;;;;;;5010790;28;20152;-55
2022/11/19 10:23:18;;;;;;;8.05;5.32;;;;;;;;;;5010784;28;20174;-54
2022/11/19 10:25:49;;;;;;;10.98;5.60;;;;;;;;;;5012860;28;20098;-55
2022/11/19 10:28:29;;;;;;;8.95;5.28;;;;;;;;;;5011991;28;20608;-55
2022/11/19 10:31:04;;;;;;;7.47;4.53;;;1.80;99.90;;;;;;5013610;28;20059;-55
2022/11/19 10:33:53;;;;;;;9.45;4.53;;;1.70;99.90;;;;;;5012008;28;20042;-55
2022/11/19 10:36:28;;;;;;;7.70;4.47;;;1.60;99.90;;;;;;5013423;28;20116;-55
2022/11/19 10:39:07;;;;;;;6.93;4.38;;;;;;;;;;5013433;28;20049;-56
2022/11/19 10:41:38;;;;;;;7.38;4.63;;;;;;;;;;5017407;28;20077;-56
2022/11/19 10:44:36;;;;;;;9.55;4.65;;;;;;;;;;5043188;28;20095;-56
2022/11/19 10:47:02;;;;;;;7.75;4.78;;;;;;;;;;5012349;28;20477;-56
2022/11/19 10:49:28;;;;;;;7.00;4.57;;;;;;;;;;5014255;28;20430;-56
2022/11/19 10:51:54;;;;;;;7.75;4.00;;;;;;;;;;5016127;28;20069;-56
2022/11/19 10:54:22;;;;;;;7.35;4.57;;;;;;;;;;5017207;28;20413;-56
2022/11/19 10:56:51;;;;;;;8.15;4.72;;;2.10;99.90;;;;;;5017249;28;20453;-56
2022/11/19 10:59:25;;;;;;;6.55;3.00;;;;;;;;;;5018045;28;20041;-56
2022/11/19 11:01:56;;;;;;;9.07;4.90;;;2.10;99.90;;;;;;5015893;28;20542;-57
2022/11/19 11:04:27;;;;;;;8.50;4.60;;;2.30;99.90;;;;;;5018003;28;20053;-56
2022/11/19 11:06:58;;;;;;;8.10;4.07;;;2.30;99.90;;;;;;5015695;28;20765;-56
2022/11/19 11:09:30;;;;;;;6.72;4.53;;;2.20;99.90;;;;;;5016192;28;20044;-56
2022/11/19 11:14:53;;;;;;;8.43;4.20;;;2.40;99.90;;;;;;5014245;28;20045;-57
2022/11/19 11:17:26;;;;;;;6.47;3.92;;;2.40;99.90;;;;;;5021005;28;20123;-56
2022/11/19 11:19:59;;;;;;;6.75;4.43;;;;;;;;;;5014366;28;20505;-56
2022/11/19 11:22:25;;;;;;;6.88;3.85;;;;;;;;;;5015599;28;20038;-56
2022/11/19 11:24:51;;;;;;;5.05;3.28;;;;;;;;;;5015069;28;20073;-56
2022/11/19 11:27:35;;;;;;;6.60;4.32;;;2.40;99.90;;;;;;5014711;28;20076;-56
2022/11/19 11:30:13;;;;;;;6.75;4.10;;;2.40;99.90;;;;;;5015500;28;20379;-57
2022/11/19 11:32:39;;;;;;;8.55;4.50;;;;;;;;;;5018831;28;20045;-56
2022/11/19 11:35:06;;;;;;;8.32;4.82;;;;;;;;;;5016499;28;20571;-56
2022/11/19 11:37:32;;;;;;;7.45;4.43;;;2.30;99.90;;;;;;5016450;28;20041;-56
2022/11/19 11:39:58;;;;;;;7.47;4.10;;;;;;;;;;5016483;28;20049;-56
2022/11/19 11:42:27;;;;;;;7.68;4.22;;;;;;;;;;5045111;28;20050;-57
2022/11/19 11:44:56;;;;;;;7.80;4.10;;;2.70;99.90;;;;;;5017133;28;20076;-57
2022/11/19 11:47:35;;;;;;;7.50;4.10;;;2.60;99.90;;;;;;5013396;28;20497;-57
2022/11/19 11:50:20;;;;;;;7.70;4.30;;;;;;;;;;5014896;28;20434;-56
2022/11/19 11:52:50;;;;;;;7.68;4.45;;;2.80;99.90;;;;;;5018630;28;20046;-56
2022/11/19 11:55:22;;;;;;;6.03;3.63;;;;;;;;;;5017712;28;20037;-57
2022/11/19 11:57:55;;;;;;;6.20;3.97;;;;;;;;;;5018562;28;20442;-57
2022/11/19 12:00:34;;;;;;;6.32;3.60;;;2.90;99.90;;;;;;5018115;28;20132;-57
2022/11/19 12:03:15;;;;;;;5.60;3.05;;;2.60;99.90;;;;;;5018934;28;20090;-57
2022/11/19 12:06:01;;;;;;;6.30;3.70;;;2.90;99.90;;;;;;5018577;28;20092;-57
2022/11/19 12:08:39;;;;;;;7.25;3.83;;;;;;;;;;5015078;28;20041;-57
2022/11/19 12:11:54;;;;;;;7.82;4.05;;;2.80;99.90;;;;;;5015596;28;20045;-56
2022/11/19 12:14:44;;;;;;;7.45;4.07;;;2.90;99.90;;;;;;5014944;28;20409;-57
2022/11/19 12:17:33;;;;;;;6.30;3.75;;;3.00;99.90;;;;;;5015706;28;20184;-57
2022/11/19 12:20:02;;;;;;;6.88;3.80;;;3.50;99.90;;;;;;5016514;28;20060;-56
2022/11/19 12:22:36;;;;;;;7.68;4.28;;;3.00;99.90;;;;;;5017391;28;20045;-56
2022/11/19 12:25:33;;;;;;;7.35;3.92;;;2.90;99.90;;;;;;5015266;28;20046;-57
2022/11/19 12:28:16;;;;;;;8.35;4.40;;;2.70;99.90;;;;;;5012627;28;20424;-56
2022/11/19 12:31:03;;;;;;;7.60;4.00;;;3.00;99.90;;;;;;5016796;28;20045;-56
2022/11/19 12:34:07;;;;;;;6.78;3.72;;;3.00;99.90;;;;;;5011690;28;20589;-57
2022/11/19 12:37:06;;;;;;;6.88;4.20;;;3.00;99.90;;;;;;5012346;28;20059;-57
2022/11/19 12:39:50;;;;;;;6.90;3.90;;;1.50;99.90;;;;;;5015275;28;20052;-57
2022/11/19 12:42:36;;;;;;;7.35;3.90;;;3.00;99.90;;;;;;5011650;28;20045;-56
2022/11/19 12:45:13;;;;;;;6.93;3.58;;;3.10;99.90;;;;;;5013190;28;20595;-57
2022/11/19 12:48:12;;;;;;;7.50;3.85;;;3.20;99.90;;;;;;5015910;28;20064;-57
2022/11/19 12:50:43;;;;;;;6.65;3.72;;;3.10;99.90;;;;;;5012306;28;20045;-56
2022/11/19 12:53:13;;;;;;;8.30;3.90;;;3.20;99.90;;;;;;5015703;28;20339;-57
2022/11/19 12:56:27;;;;;;;8.68;4.90;;;3.20;99.90;;;;;;5012943;28;20722;-57
2022/11/19 12:59:18;;;;;;;6.47;4.32;;;3.20;99.90;;;;;;5013675;28;20056;-56
2022/11/19 13:01:49;;;;;;;6.53;3.85;;;3.30;99.90;;;;;;5011448;28;20538;-56
2022/11/19 13:04:33;;;;;;;7.07;4.40;;;3.40;99.90;;;;;;5013629;28;20045;-56
2022/11/19 13:07:12;;;;;;;6.78;3.90;;;3.10;99.90;;;;;;5015832;28;20257;-56
2022/11/19 13:09:46;;;;;;;5.78;3.03;;;3.30;99.90;;;;;;5012697;28;20077;-57
2022/11/19 13:12:26;;;;;;;7.40;2.90;;;3.30;99.90;;;;;;5015427;28;20053;-56
2022/11/19 13:15:20;;;;;;;6.28;3.45;;;3.40;99.90;;;;;;5017558;28;20103;-57
2022/11/19 13:17:52;;;;;;;6.47;3.30;;;3.40;99.90;;;;;;5014366;28;20111;-57
2022/11/19 13:20:44;;;;;;;7.72;3.53;;;3.30;99.90;;;;;;5016126;28;20044;-56
2022/11/19 13:23:18;;;;;;;6.35;3.65;;;3.40;99.90;;;;;;5016977;28;20041;-57
2022/11/19 13:25:50;;;;;;;5.68;3.20;;;3.40;99.90;;;;;;5014152;28;20052;-56
2022/11/19 13:28:29;;;;;;;;;;;3.40;99.90;;;;;;5015847;28;20513;-57
2022/11/19 13:31:01;;;;;;;6.20;3.30;;;3.30;99.90;;;;;;5012138;28;19956;-57
2022/11/19 13:33:42;;;;;;;6.15;3.58;;;3.40;99.90;;;;;;5015059;28;20045;-57
2022/11/19 13:36:16;;;;;;;6.20;3.20;;;3.40;99.90;;;;;;5012844;28;20069;-56
2022/11/19 13:38:43;;;;;;;5.70;3.28;;;;;;;;;;5020249;28;20075;-56
2022/11/19 13:41:30;;;;;;;6.18;3.28;;;3.30;99.90;;;;;;5017705;28;20037;-56
2022/11/19 13:46:53;;;;;;;6.13;3.55;;;3.40;99.90;;;;;;5013838;28;20045;-57
2022/11/19 13:49:20;;;;;;;5.55;3.10;;;;;;;;;;5015143;28;20052;-56
2022/11/19 13:51:53;;;;;;;6.10;3.13;;;3.30;99.90;;;;;;5017216;28;20049;-57
2022/11/19 13:54:24;;;;;;;7.82;3.65;;;3.50;99.90;;;;;;5015415;28;20084;-57
2022/11/19 13:56:52;;;;;;;7.18;3.30;;;3.40;99.90;;;;;;5015329;28;20535;-57
2022/11/19 13:59:31;;;;;;;6.03;3.65;;;3.40;99.90;;;;;;5015591;28;20363;-57
2022/11/19 14:02:52;;;;;;;7.07;3.42;;;3.30;99.90;;;;;;5017801;28;20524;-56
2022/11/19 14:05:45;;;;;;;5.22;2.60;;;3.30;99.90;;;;;;5002969;28;21173;-56
2022/11/19 14:08:32;;;;;;;9.57;3.58;;;3.30;99.90;;;;;;5016502;28;20259;-56
2022/11/19 14:11:07;;;;;;;7.57;3.60;;;3.30;99.90;;;;;;5014439;28;20056;-56
2022/11/19 14:14:00;;;;;;;6.97;3.53;;;3.10;99.90;;;;;;5015164;28;20517;-57
2022/11/19 14:27:21;;;;;;;8.00;3.60;;;;;;;;;;5017509;28;20052;-57
2022/11/19 14:29:47;;;;;;;6.28;3.97;;;;;;;;;;5019686;28;20072;-56
2022/11/19 14:32:13;;;;;;;7.40;3.85;;;;;;;;;;5016142;28;20041;-56
2022/11/19 14:35:07;;;;;;;6.88;3.70;;;3.00;99.90;;;;;;5019580;28;20083;-57
2022/11/19 14:37:33;;;;;;;6.32;3.67;;;;;;;;;;5022219;28;20052;-56
2022/11/19 14:40:13;;;;;;;8.10;3.90;;;3.00;99.90;;;;;;5021269;28;20049;-56
2022/11/19 14:46:00;;;;;;;6.47;3.78;;;2.80;99.90;;;;;;5019048;28;20041;-57
2022/11/19 14:48:28;;;;;;;7.47;4.30;;;2.60;99.90;;;;;;5018558;28;20054;-56
2022/11/19 14:51:07;;;;;;;7.38;2.90;;;;;;;;;;5019609;28;20050;-57
2022/11/19 14:53:51;;;;;;;6.38;3.50;;;2.70;99.90;;;;;;5019446;28;20040;-57
2022/11/19 14:56:20;;;;;;;5.47;3.20;;;2.70;99.90;;;;;;5016610;28;20095;-57
2022/11/19 14:58:57;;;;;;;9.43;4.50;;;2.70;99.90;;;;;;5019960;28;20139;-57
2022/11/19 15:01:24;;;;;;;6.72;3.67;;;;;;;;;;5018643;28;20045;-56
2022/11/19 15:04:02;;;;;;;8.13;3.90;;;2.50;99.90;;;;;;5016703;28;20033;-56
2022/11/19 15:06:34;;;;;;;7.00;3.65;;;2.40;99.90;;;;;;5016715;28;20037;-56
2022/11/19 15:09:01;;;;;;;7.78;4.05;;;;;;;;;;5016683;28;20566;-56
2022/11/19 15:11:54;;;;;;;5.88;3.70;;;2.20;99.90;;;;;;5018965;28;20045;-56
2022/11/19 15:14:31;;;;;;;7.28;3.72;;;2.30;99.90;;;;;;5017368;28;20046;-56
2022/11/19 15:17:03;;;;;;;8.18;4.28;;;2.00;99.90;;;;;;5019463;28;20851;-57